Station: OODNADATTA AWS

  Atmospheric Gas Attenuation - ITU Rec 676-11   --------------- db/100km ---------------
Date Time Temp RH % AH g/m3 Dew Point Wind Direction Speed kph Gust kph Barometer mB Rainfall Since 9am 24GHz 47GHz 76GHz 122GHz 134GHz 241GHz
24 19:30 23.9 97 20.98 23.4 24 39 1002.6 24 45.4 44.0 87.4 231.3 258.2 896.6
24 19:20 23.9 95 20.55 23 33 43 1002.6 23.6 44.5 43.1 85.2 225.6 251.2 872.2
24 19:10 23.9 91 19.69 22.3 39 48 1002.4 22.6 42.6 41.4 81.0 214.3 237.3 824.1
24 19:00 25 84 19.34 22.1 32 43 1002.4 22 41.8 40.2 78.1 206.8 228.4 793.2
24 18:50 25.4 84 19.78 22.5 39 46 1002.9 21.8 42.6 40.9 79.8 211.3 234.0 813.0
24 18:40 25.7 89 21.31 23.7 33 39 1003.1 21.8 45.9 43.7 86.9 230.2 257.3 893.9
24 18:30 26.4 83 20.66 23.3 43 61 1002.8 21.8 44.4 42.1 82.9 219.6 244.5 849.7
24 18:20 27.5 77 20.37 23.1 41 50 1002.6 21.8 43.7 41.0 80.4 212.8 236.5 821.7
24 18:10 27.9 73 19.74 22.6 46 52 1002.3 21.8 42.3 39.6 77.0 203.9 225.6 784.1
24 18:00 28.1 76 20.78 23.5 30 41 1001.5 21.8 44.5 41.4 81.6 216.0 240.7 836.4
24 17:50 28.8 71 20.17 23.2 32 35 1001.5 21.8 43.1 39.9 78.0 206.6 229.2 796.7
24 17:40 29.3 66 19.27 22.3 43 48 1001.1 21.8 41.2 38.0 73.4 194.4 214.4 745.3
24 17:30 31.1 61 19.63 22.7 17 24 1000.7 21.8 41.7 37.8 73.3 194.0 214.4 745.6
24 17:20 31.3 60 19.52 22.6 13 15 999.9 21.8 41.5 37.5 72.5 192.1 212.2 737.8
24 17:10 31 66 21.13 23.9 13 15 999.6 21.8 44.9 40.5 80.0 211.9 236.4 821.9
24 17:00 30.6 66 20.68 23.5 20 24 999.5 21.8 44.0 39.9 78.3 207.5 231.0 803.0
24 16:50 30.3 70 21.58 24.2 19 20 999.6 21.8 45.9 41.7 82.8 219.3 245.4 853.1
24 16:40 29.8 70 21 23.7 20 22 999.8 21.8 44.8 40.9 80.7 213.7 238.3 828.3
24 16:30 28.7 95 26.85 27.8 24 30 1000.1 21.8 57.3 53.2 111.3 294.9 337.5 1172.7
24 16:20 27.8 99 26.63 27.6 24 28 1000.3 21.8 57.0 53.4 111.5 295.4 337.9 1173.9
24 16:10 26.3 100 24.76 26.3 28 32 1000.5 21.8 53.2 50.3 103.7 274.7 312.1 1084.1
24 16:00 25.3 100 23.41 25.3 30 33 1001 21.6 50.4 48.1 98.0 259.5 293.2 1018.5
24 15:50 25 100 23.02 25 30 30 1001.9 21.6 49.6 47.5 96.4 255.3 288.0 1000.2
24 15:40 24.5 100 22.38 24.5 22 28 1002.8 21.2 48.3 46.5 93.8 248.4 279.3 970.0
24 15:30 24.4 100 22.25 24.4 32 39 1003.6 20 48.1 46.4 93.3 247.1 277.6 964.2
24 15:20 24.5 100 22.38 24.5 32 39 1004.2 16.8 48.3 46.6 93.9 248.7 279.5 970.8
24 15:10 23.6 82 17.44 20.3 37 67 1002.7 5.4 37.8 37.3 70.6 186.8 203.4 706.3
24 15:00 35 39 15.43 19 20 39 1001.5 0 32.6 29.5 53.2 140.7 150.0 521.6
24 14:50 36.5 31 13.25 17.1 13 17 1000.9 0 28.1 25.9 44.5 117.6 122.0 423.9
24 14:40 36.9 33 14.4 18 17 19 1000.9 0 30.4 27.4 48.3 127.6 134.4 467.2
24 14:30 36.9 32 13.96 17.5 7 15 1001.1 0 29.5 26.8 46.8 123.6 129.4 449.7
24 14:20 35.5 35 14.21 18.1 13 13 1001.2 0 30.1 27.6 48.5 128.1 134.6 467.7
24 14:10 34.4 40 15.33 19.2 24 30 1001.4 0 32.5 29.6 53.2 140.8 149.9 521.2
24 14:00 37.3 31 13.81 17.8 24 37 1001.3 0 29.2 26.5 46.0 121.6 127.1 441.7
24 13:50 38.6 24 11.42 15 9 13 1001.3 0 24.2 22.9 37.5 98.9 99.5 345.4
24 13:40 38.6 24 11.42 15 2 6 1001.4 0 24.2 22.9 37.5 99.0 99.5 345.4
24 13:30 38.3 25 11.72 14.8 6 17 1001.7 0 24.8 23.4 38.6 101.9 103.0 357.7
24 13:20 37.9 26 11.94 15.1 7 9 1001.9 0 25.3 23.8 39.5 104.3 105.9 367.6
24 13:10 38 26 12 15.2 11 13 1002.1 0 25.4 23.9 39.7 104.7 106.4 369.4
24 13:00 37.5 25 11.25 14.7 11 17 1002.3 0 23.9 23.0 37.5 98.9 99.2 344.0
24 12:50 37.7 26 11.82 14.9 15 22 1002.4 0 25.1 23.7 39.3 103.5 104.9 364.2
24 12:40 37.1 27 11.9 15 17 19 1002.7 0 25.3 24.0 39.8 105.0 106.6 369.9
24 12:30 37.3 26 11.58 14.6 15 20 1002.7 0 24.6 23.5 38.7 102.0 102.9 357.1
24 12:20 37.7 26 11.82 14.9 15 19 1003 0 25.1 23.7 39.3 103.6 105.0 364.3
24 12:10 37.5 25 11.25 14.7 19 20 1003 0 23.9 23.0 37.6 99.0 99.2 344.2
24 12:00 37.1 26 11.46 14.4 19 22 1002.9 0 24.4 23.4 38.4 101.2 101.9 353.6
24 11:50 36.8 25 10.85 14.1 20 22 1003 0 23.1 22.7 36.6 96.4 95.9 332.5
24 11:40 36.9 25 10.91 14.2 15 19 1003 0 23.3 22.7 36.7 96.8 96.4 334.3
24 11:30 36.7 26 11.23 14.1 20 26 1003 0 23.9 23.2 37.9 99.7 100.0 346.8
24 11:20 36.7 25 10.8 13.5 20 22 1003.2 0 23.0 22.7 36.5 96.1 95.5 331.1
24 11:10 36.6 25 10.74 13.4 22 24 1003.3 0 22.9 22.6 36.4 95.7 95.0 329.4
24 11:00 36.7 23 9.93 12.2 19 22 1003.2 0 21.3 21.6 33.8 88.9 86.6 299.9
24 10:50 36.5 24 10.26 12.7 22 24 1003.4 0 22.0 22.0 34.9 91.8 90.2 312.4
24 10:40 36.6 23 9.88 12.7 17 20 1003.3 0 21.2 21.5 33.7 88.6 86.2 298.5
24 10:30 36.6 24 10.31 12.8 15 19 1003.1 0 22.0 22.0 35.0 92.1 90.6 313.8
24 10:20 36.4 23 9.78 11.9 13 17 1003.1 0 21.0 21.4 33.4 87.9 85.4 295.6
24 10:10 36.1 23 9.63 11.7 15 19 1003.2 0 20.7 21.3 33.1 87.0 84.2 291.3
24 10:00 36.4 22 9.36 11.3 13 19 1003 0 20.1 20.9 32.2 84.5 81.2 280.8
24 09:50 36.4 22 9.36 11.3 15 17 1003.2 0 20.1 20.9 32.2 84.5 81.2 280.8
24 09:40 36 19 7.92 8.7 9 11 1003.1 0 17.2 19.2 28.0 73.5 67.5 232.7
24 09:30 36.1 19 7.96 8.8 15 19 1003.1 0 17.3 19.3 28.1 73.7 67.8 233.7
24 09:20 35.4 17 6.87 6.6 15 19 1003.1 0 15.1 18.1 25.2 66.0 58.0 199.4
24 09:10 35.2 16 6.39 5.6 17 19 1003.2 0 14.1 17.6 23.9 62.5 53.8 184.3
24 09:00 35 16 6.33 5.4 19 22 1003 0 14.0 17.6 23.8 62.2 53.3 182.8
24 08:50 34.7 15 5.84 4.3 20 22 1003 0 13.0 17.1 22.6 58.8 49.1 167.7
24 08:40 34.4 15 5.75 4 22 24 1002.9 0 12.8 17.0 22.4 58.4 48.4 165.4
24 08:30 34.2 14 5.31 2.9 22 26 1002.8 0 12.0 16.6 21.3 55.3 44.6 151.9
24 08:20 34 14 5.26 2.8 20 24 1002.9 0 11.9 16.6 21.2 55.1 44.2 150.6
24 08:10 33.9 14 5.23 2.7 26 30 1002.8 0 11.8 16.5 21.1 54.9 44.0 149.9
24 08:00 33.9 13 4.85 1.6 28 39 1002.5 0 11.0 16.1 20.1 52.2 40.7 138.0
24 07:50 34 13 4.88 1.7 24 28 1002.5 0 11.1 16.1 20.1 52.3 40.9 138.8
24 07:40 33.8 13 4.83 1.6 22 30 1002.3 0 11.0 16.1 20.1 52.1 40.5 137.5
24 07:30 33.7 13 4.8 1.5 24 30 1002.1 0 10.9 16.1 20.0 51.9 40.3 136.7
24 07:20 33.8 13 4.83 1.6 26 30 1002 0 11.0 16.1 20.0 52.0 40.5 137.5
24 07:10 33.9 13 4.85 1.6 28 32 1001.9 0 11.0 16.1 20.1 52.1 40.6 137.9
24 07:00 33.8 13 4.83 1.6 30 35 1001.7 0 11.0 16.1 20.0 52.0 40.5 137.4
24 06:50 33.8 13 4.83 1.6 28 32 1001.6 0 11.0 16.1 20.0 52.0 40.5 137.4
24 06:40 33.8 13 4.83 1.6 30 32 1001.4 0 11.0 16.1 20.0 52.0 40.5 137.4
24 06:30 33.8 12 4.46 0.5 28 35 1001.4 0 10.2 15.7 19.1 49.4 37.3 126.0
24 06:20 33.8 12 4.46 0.5 28 32 1001.3 0 10.2 15.7 19.1 49.4 37.3 126.0
24 06:10 33.6 12 4.41 0.3 26 30 1001.3 0 10.1 15.7 19.0 49.2 36.9 124.8
24 06:00 33.6 12 4.41 0.3 24 32 1001.3 0 10.1 15.7 19.0 49.2 36.9 124.8
24 05:50 33.5 12 4.39 0.2 24 28 1001.3 0 10.1 15.7 18.9 49.1 36.8 124.3
24 05:40 33.4 12 4.36 0.1 20 24 1001.3 0 10.0 15.6 18.9 48.9 36.6 123.5
24 05:30 33.5 11 4.02 -1 20 24 1001.4 0 9.3 15.3 18.0 46.5 33.6 113.1
24 05:20 33.5 11 4.02 -1 22 24 1001.4 0 9.3 15.3 18.0 46.5 33.6 113.1
24 04:50 33.8 10 3.71 -2 19 22 1001.8 0 8.7 14.9 17.1 44.3 30.9 103.5
24 04:40 34.2 10 3.79 -1.7 22 24 1001.9 0 8.9 14.9 17.3 44.6 31.4 105.4
24 04:30 35 11 4.35 0.2 26 32 1001.6 0 10.0 15.4 18.5 48.0 35.8 121.0
24 04:20 35.2 11 4.4 0.3 28 32 1001.4 0 10.1 15.4 18.6 48.2 36.2 122.2
24 04:10 35.2 10 4 -1 26 28 1001.2 0 9.3 15.0 17.6 45.5 32.8 110.3
24 04:00 35.4 10 4.04 -0.8 28 37 1001.3 0 9.3 15.0 17.6 45.6 33.0 111.3
24 03:50 35.3 10 4.02 -0.9 26 30 1001.3 0 9.3 15.0 17.6 45.6 32.9 110.8
24 03:40 35.4 10 4.04 -0.8 28 32 1001.4 0 9.3 15.0 17.6 45.6 33.0 111.3
24 03:30 35.3 10 4.02 -0.9 28 35 1001.5 0 9.3 15.0 17.6 45.6 32.9 110.8
24 03:20 35.5 9 3.65 -2.2 28 30 1001.5 0 8.5 14.6 16.7 43.0 29.8 99.8
24 03:10 35.6 9 3.67 -2.1 26 28 1001.6 0 8.6 14.6 16.7 43.1 29.9 100.2
24 03:00 35.4 9 3.63 -2.3 22 28 1001.6 0 8.5 14.6 16.6 42.9 29.7 99.3
24 02:50 35.4 9 3.63 -2.3 22 26 1001.8 0 8.5 14.6 16.6 42.9 29.7 99.3
24 02:40 35.2 9 3.6 -2.4 22 24 1001.9 0 8.5 14.6 16.6 42.8 29.5 98.7

Last Refresh: 24-Jan-2021 19:41:29

Most of the information presented on this site is sourced from the Bureau of Meteorology.  Copyright in all material sourced from the Bureau of Meteorology resides with the Commonwealth of Australia.